MST,Max TemperatureF,Mean TemperatureF,Min TemperatureF,Max Dew PointF,MeanDew PointF,Min DewpointF,Max Humidity, Mean Humidity, Min Humidity, Max Sea Level PressureIn, Mean Sea Level PressureIn, Min Sea Level PressureIn, Max VisibilityMiles, Mean VisibilityMiles, Min VisibilityMiles, Max Wind SpeedMPH, Mean Wind SpeedMPH, Max Gust SpeedMPH,PrecipitationIn, CloudCover, Events, WindDirDegrees
2012-2-1,56,38,20,21,12,2,68,41,14,30.25,30.17,30.11,10,10,6,22,8,26,0.00,0,,273
2012-2-2,56,42,28,34,25,9,100,63,26,30.14,30.06,29.98,10,9,4,28,13,33,0.10,5,Rain-Snow,134
2012-2-3,35,32,29,34,31,28,100,96,92,30.29,30.13,30.01,10,3,1,24,16,30,0.18,8,Snow,10
2012-2-4,33,26,18,28,25,17,96,83,69,30.54,30.37,30.23,10,6,2,26,16,32,T,5,Snow,340
2012-2-5,41,27,13,26,19,11,92,72,51,30.53,30.44,30.24,10,10,10,12,6,13,0.00,0,,265
2012-2-6,41,28,15,27,21,12,92,73,54,30.30,30.21,30.10,10,9,5,22,7,28,T,3,,306
2012-2-7,29,25,21,27,20,16,92,80,68,30.54,30.42,30.23,10,9,4,28,15,35,T,8,Snow,3
2012-2-8,32,26,19,23,19,15,92,78,63,30.50,30.35,30.18,10,10,10,17,10,22,0.00,6,,192
2012-2-9,47,36,25,26,24,22,92,65,37,30.24,30.18,30.11,10,10,10,24,11,29,0.00,2,,295
2012-2-10,30,22,13,19,15,10,84,71,58,30.54,30.35,30.18,10,6,2,18,9,22,0.03,7,Snow,35
2012-2-11,19,10,1,12,8,0,92,79,66,30.73,30.55,30.38,10,7,1,17,8,22,0.03,7,Snow,111
2012-2-12,35,26,16,22,16,10,96,74,51,30.46,30.03,29.69,10,10,10,33,22,40,0.00,4,,166
2012-2-13,42,32,22,29,24,19,96,78,60,29.85,29.73,29.62,10,8,0,28,13,33,0.04,5,Fog-Snow,312
2012-2-14,54,39,24,31,27,22,92,67,41,29.86,29.77,29.69,10,10,7,18,8,24,0.00,1,,205
2012-2-15,43,32,20,29,24,18,92,66,39,30.24,30.00,29.74,10,10,10,28,13,36,0.00,2,,342
2012-2-16,50,34,17,28,22,17,96,67,37,30.32,30.22,30.10,10,10,10,20,8,25,0.00,1,,242
2012-2-17,52,36,20,25,19,14,88,57,26,30.23,30.14,30.07,10,10,10,20,9,23,0.00,1,,341
2012-2-18,45,31,17,27,19,14,92,63,33,30.28,30.12,29.96,10,9,2,20,9,25,0.00,2,,194
2012-2-19,48,38,28,37,32,28,100,79,58,29.98,29.79,29.54,10,7,1,28,19,37,0.00,5,,173
2012-2-20,38,30,22,36,27,15,92,72,52,29.99,29.66,29.52,10,7,0,46,24,59,0.04,5,Fog-Snow,303
2012-2-21,54,37,19,21,15,10,81,50,18,30.01,29.89,29.75,10,10,10,21,9,25,0.00,0,,244
2012-2-22,67,50,32,28,25,22,59,39,18,29.73,29.54,29.30,10,10,10,31,14,43,0.00,2,,276
2012-2-23,46,35,23,32,20,10,89,59,29,30.11,29.74,29.33,10,10,10,39,22,47,0.00,3,,325
2012-2-24,46,32,17,16,10,6,77,49,20,30.34,30.24,30.12,10,10,10,32,14,53,0.00,1,,291
2012-2-25,64,40,15,22,12,7,67,40,13,30.27,29.87,29.55,10,10,10,33,19,46,0.00,0,,200
2012-2-26,49,33,17,15,-1,-12,59,34,8,30.32,30.06,29.80,10,10,10,35,15,48,0.00,0,,312
2012-2-27,45,29,12,29,14,3,84,56,28,30.45,30.26,30.00,10,10,10,32,16,39,0.00,4,,165
2012-2-28,66,46,26,47,35,8,100,56,12,29.96,29.65,29.38,10,7,0,44,22,54,T,6,Fog-Rain-Thunderstorm,211
2012-2-29,60,44,27,20,12,2,59,35,10,29.94,29.82,29.70,10,10,10,23,13,26,0.00,0,,258